createdAt,value
2023-04-10T00:00:17.807Z,80.47
2023-04-10T00:03:07.128Z,79.82
2023-04-10T00:05:35.893Z,79.75
2023-04-10T00:08:04.607Z,80.09
2023-04-10T00:10:33.523Z,79.85
2023-04-10T00:13:03.649Z,79.88
2023-04-10T00:15:32.167Z,80.02
2023-04-10T00:18:00.819Z,79.89
2023-04-10T00:20:29.167Z,80.42
2023-04-10T00:22:57.556Z,80.45
2023-04-10T00:25:26.703Z,80.51
2023-04-10T00:27:55.367Z,80.56
2023-04-10T00:30:23.862Z,81.02
2023-04-10T00:32:52.316Z,81.34
2023-04-10T00:35:20.889Z,81.78
2023-04-10T00:37:50.364Z,82.29
2023-04-10T00:40:18.937Z,82.37
2023-04-10T00:42:48.017Z,82.21
2023-04-10T00:45:16.408Z,82.48
2023-04-10T00:47:44.925Z,82.69
2023-04-10T00:50:13.857Z,83.40
2023-04-10T00:52:42.341Z,83.12
2023-04-10T00:55:11.501Z,83.16
2023-04-10T00:57:48.812Z,82.78
2023-04-10T01:00:18.101Z,82.59
2023-04-10T01:02:48.049Z,82.48
2023-04-10T01:05:16.979Z,82.72
2023-04-10T01:07:56.184Z,82.50
2023-04-10T01:11:07.525Z,82.82
2023-04-10T01:13:43.920Z,83.05
2023-04-10T01:16:27.036Z,82.76
2023-04-10T01:19:07.342Z,83.02
2023-04-10T01:21:37.406Z,83.22
2023-04-10T01:24:18.671Z,83.21
2023-04-10T01:26:50.075Z,83.45
2023-04-10T01:29:23.226Z,83.85
2023-04-10T01:32:00.721Z,83.72
2023-04-10T01:34:51.237Z,84.89
2023-04-10T01:37:26.391Z,84.16
2023-04-10T01:40:01.208Z,84.11
2023-04-10T01:42:39.234Z,84.00
2023-04-10T01:45:12.331Z,84.03
2023-04-10T01:47:40.733Z,84.14
2023-04-10T01:50:10.085Z,84.45
2023-04-10T01:52:40.451Z,84.74
2023-04-10T01:55:28.606Z,85.00
2023-04-10T01:58:03.461Z,84.48
2023-04-10T02:00:38.937Z,84.75
2023-04-10T02:03:08.127Z,84.42
2023-04-10T02:06:09.084Z,84.30
2023-04-10T02:08:50.141Z,84.38
2023-04-10T02:11:38.602Z,84.43
2023-04-10T02:14:15.263Z,85.04
2023-04-10T02:16:44.899Z,84.48
2023-04-10T02:19:14.237Z,83.98
2023-04-10T02:21:46.099Z,84.13
2023-04-10T02:24:14.516Z,84.63
2023-04-10T02:26:50.539Z,84.60
2023-04-10T02:29:19.413Z,84.57
2023-04-10T02:31:48.030Z,84.24
2023-04-10T02:34:16.906Z,84.09
2023-04-10T02:36:45.347Z,84.14
2023-04-10T02:39:14.054Z,84.01
2023-04-10T02:41:51.829Z,84.36
2023-04-10T02:44:20.715Z,84.61
2023-04-10T02:46:49.112Z,84.48
2023-04-10T02:49:18.517Z,84.21
2023-04-10T02:51:46.886Z,84.60
2023-04-10T02:54:15.615Z,84.46
2023-04-10T02:56:44.493Z,84.68
2023-04-10T02:59:13.454Z,84.52
2023-04-10T03:01:42.339Z,84.26
2023-04-10T03:04:11.259Z,84.04
2023-04-10T03:06:40.955Z,83.69
2023-04-10T03:09:09.708Z,83.96
2023-04-10T03:11:38.427Z,83.73
2023-04-10T03:14:06.856Z,84.39
2023-04-10T03:16:35.477Z,84.69
2023-04-10T03:19:05.637Z,84.07
2023-04-10T03:21:34.755Z,84.12
2023-04-10T03:24:03.247Z,84.36
2023-04-10T03:26:33.643Z,84.03
2023-04-10T03:29:02.161Z,84.08
2023-04-10T03:31:30.702Z,84.27
2023-04-10T03:34:00.352Z,84.65
2023-04-10T03:36:28.784Z,84.79
2023-04-10T03:38:57.050Z,84.88
2023-04-10T03:41:25.922Z,84.86
2023-04-10T03:43:55.108Z,84.97
2023-04-10T03:46:23.909Z,84.78
2023-04-10T03:48:54.276Z,84.81
2023-04-10T03:51:24.924Z,84.66
2023-04-10T03:53:53.731Z,84.72
2023-04-10T03:56:22.831Z,84.69
2023-04-10T03:58:51.502Z,84.78
2023-04-10T04:01:20.792Z,84.81
2023-04-10T04:04:09.886Z,84.93
2023-04-10T04:07:04.577Z,84.64
2023-04-10T04:09:56.542Z,84.55
2023-04-10T04:12:44.489Z,84.41
2023-04-10T04:15:36.100Z,84.56
2023-04-10T04:18:19.504Z,84.85
2023-04-10T04:20:52.779Z,84.43
2023-04-10T04:23:59.586Z,84.58
2023-04-10T04:26:37.054Z,84.65
2023-04-10T04:29:15.650Z,84.35
2023-04-10T04:32:00.125Z,84.34
2023-04-10T04:34:56.657Z,84.23
2023-04-10T04:37:37.991Z,84.30
2023-04-10T04:40:20.389Z,83.97
2023-04-10T04:43:09.048Z,83.81
2023-04-10T04:45:53.040Z,83.71
2023-04-10T04:48:47.648Z,83.58
2023-04-10T04:51:27.474Z,83.49
2023-04-10T04:54:06.189Z,83.32
2023-04-10T04:56:49.661Z,83.00
2023-04-10T04:59:34.464Z,82.79
2023-04-10T05:02:26.010Z,82.47
2023-04-10T05:05:16.095Z,82.74
2023-04-10T05:08:03.359Z,82.30
2023-04-10T05:11:01.325Z,81.75
2023-04-10T05:13:53.045Z,81.49
2023-04-10T05:16:24.356Z,80.68
2023-04-10T05:19:00.966Z,80.45
2023-04-10T05:21:49.412Z,80.22
2023-04-10T05:24:43.891Z,79.16
2023-04-10T05:27:29.496Z,79.02
2023-04-10T05:30:21.420Z,78.57
2023-04-10T05:33:08.437Z,77.86
2023-04-10T05:35:36.922Z,77.20
2023-04-10T05:38:34.576Z,75.89
2023-04-10T05:41:17.154Z,75.65
2023-04-10T05:44:12.021Z,74.61
2023-04-10T05:46:59.118Z,74.09
2023-04-10T05:49:53.708Z,73.81
2023-04-10T05:52:37.170Z,73.80
2023-04-10T05:55:23.675Z,73.17
2023-04-10T05:57:57.006Z,73.09
2023-04-10T06:00:58.164Z,72.07
2023-04-10T06:03:38.515Z,71.96
2023-04-10T06:06:08.032Z,71.97
2023-04-10T06:08:36.546Z,71.94
2023-04-10T06:11:05.798Z,71.59
2023-04-10T06:13:34.589Z,71.07
2023-04-10T06:16:03.450Z,70.23
2023-04-10T06:18:32.342Z,69.96
2023-04-10T06:21:02.190Z,68.82
2023-04-10T06:23:30.711Z,68.11
2023-04-10T06:25:59.247Z,67.55
2023-04-10T06:28:27.635Z,67.12
2023-04-10T06:30:58.620Z,65.95
2023-04-10T06:33:32.702Z,65.20
2023-04-10T06:36:01.359Z,65.23
2023-04-10T06:38:31.170Z,64.73
2023-04-10T06:40:59.659Z,63.59
2023-04-10T06:43:28.297Z,63.90
2023-04-10T06:45:56.694Z,64.14
2023-04-10T06:48:25.138Z,64.17
2023-04-10T06:50:53.777Z,63.46
2023-04-10T06:53:22.181Z,63.78
2023-04-10T06:55:50.922Z,62.81
2023-04-10T06:58:19.615Z,62.45
2023-04-10T07:00:48.126Z,61.85
2023-04-10T07:03:16.810Z,61.30
2023-04-10T07:05:45.631Z,61.32
2023-04-10T07:08:13.899Z,61.39
2023-04-10T07:10:42.259Z,60.68
2023-04-10T07:13:10.637Z,60.07
2023-04-10T07:15:39.140Z,60.86
2023-04-10T07:18:07.717Z,60.38
2023-04-10T07:20:36.314Z,60.00
2023-04-10T07:23:04.791Z,59.61
2023-04-10T07:25:34.161Z,57.48
2023-04-10T07:28:02.663Z,56.16
2023-04-10T07:30:31.220Z,56.65
2023-04-10T07:32:59.720Z,56.53
2023-04-10T07:35:28.509Z,56.66
2023-04-10T07:37:56.878Z,55.90
2023-04-10T07:40:25.380Z,55.94
2023-04-10T07:42:53.952Z,54.68
2023-04-10T07:45:22.517Z,55.20
2023-04-10T07:47:51.869Z,55.71
2023-04-10T07:50:20.382Z,54.72
2023-04-10T07:52:49.337Z,53.50
2023-04-10T07:55:17.802Z,52.56
2023-04-10T07:57:46.789Z,52.65
2023-04-10T08:00:16.637Z,51.77
2023-04-10T08:02:45.066Z,50.94
2023-04-10T08:05:13.765Z,51.43
2023-04-10T08:07:42.260Z,51.80
2023-04-10T08:10:11.061Z,49.80
2023-04-10T08:12:39.727Z,50.73
2023-04-10T08:15:08.340Z,50.14
2023-04-10T08:17:36.844Z,50.07
2023-04-10T08:20:06.726Z,48.31
2023-04-10T08:22:35.209Z,47.41
2023-04-10T08:25:04.747Z,47.31
2023-04-10T08:27:33.078Z,47.81
2023-04-10T08:30:01.667Z,47.14
2023-04-10T08:32:30.852Z,45.88
2023-04-10T08:34:59.566Z,45.88
2023-04-10T08:37:28.211Z,46.30
2023-04-10T08:39:57.014Z,46.16
2023-04-10T08:42:26.539Z,44.67
2023-04-10T08:44:55.493Z,44.98
2023-04-10T08:47:30.282Z,45.36
2023-04-10T08:50:04.742Z,45.83
2023-04-10T08:52:36.499Z,45.08
2023-04-10T08:55:09.058Z,43.83
2023-04-10T08:57:40.613Z,44.65
2023-04-10T09:02:59.365Z,42.46
2023-04-10T09:05:29.065Z,43.31
2023-04-10T09:07:57.623Z,44.30
2023-04-10T09:10:26.502Z,43.90
2023-04-10T09:12:55.516Z,41.81
2023-04-10T09:15:24.253Z,42.02
2023-04-10T09:18:04.195Z,40.29
2023-04-10T09:20:33.445Z,40.73
2023-04-10T09:23:02.579Z,40.28
2023-04-10T09:25:33.835Z,39.55
2023-04-10T09:28:06.400Z,39.97
2023-04-10T09:30:35.963Z,40.48
2023-04-10T09:33:22.044Z,39.57
2023-04-10T09:35:51.233Z,39.69
2023-04-10T09:38:21.732Z,39.44
2023-04-10T09:40:50.822Z,39.45
2023-04-10T09:43:26.099Z,38.97
2023-04-10T09:45:57.818Z,38.55
2023-04-10T09:48:29.433Z,37.89
2023-04-10T09:50:58.069Z,37.83
2023-04-10T09:53:26.761Z,36.51
2023-04-10T09:55:56.522Z,36.80
2023-04-10T09:58:26.684Z,36.14
2023-04-10T10:00:55.543Z,34.88
2023-04-10T10:03:25.954Z,33.25
2023-04-10T10:05:54.890Z,33.21
2023-04-10T10:08:24.881Z,33.49
2023-04-10T10:10:57.720Z,33.54
2023-04-10T10:13:37.974Z,31.86
2023-04-10T10:16:13.188Z,33.00
2023-04-10T10:18:52.549Z,34.08
2023-04-10T10:21:21.711Z,33.43
2023-04-10T10:23:54.278Z,33.34
2023-04-10T10:26:24.102Z,33.63
2023-04-10T10:28:54.158Z,34.18
2023-04-10T10:31:24.677Z,33.01
2023-04-10T10:33:54.460Z,33.20
2023-04-10T10:36:24.989Z,32.26
2023-04-10T10:39:04.337Z,33.60
2023-04-10T10:41:41.500Z,31.61
2023-04-10T10:44:42.383Z,33.21
2023-04-10T10:47:21.010Z,31.44
2023-04-10T10:49:58.879Z,31.59
2023-04-10T10:52:57.870Z,32.62
2023-04-10T10:55:31.627Z,32.74
2023-04-10T10:58:05.713Z,31.60
2023-04-10T11:00:52.949Z,31.44
2023-04-10T11:03:22.945Z,29.56
2023-04-10T11:06:09.043Z,31.04
2023-04-10T11:08:48.627Z,31.10
2023-04-10T11:11:23.770Z,30.14
2023-04-10T11:13:58.545Z,31.69
2023-04-10T11:16:31.699Z,29.85
2023-04-10T11:19:13.907Z,29.37
2023-04-10T11:22:15.893Z,30.17
2023-04-10T11:25:02.824Z,30.25
2023-04-10T11:27:40.650Z,30.96
2023-04-10T11:30:39.263Z,29.85
2023-04-10T11:33:08.319Z,31.24
2023-04-10T11:35:37.054Z,29.61
2023-04-10T11:38:13.309Z,29.22
2023-04-10T11:40:55.619Z,31.92
2023-04-10T11:43:24.872Z,31.01
2023-04-10T11:46:10.393Z,30.51
2023-04-10T11:48:39.285Z,29.39
2023-04-10T11:51:12.718Z,29.62
2023-04-10T11:53:42.820Z,29.39
2023-04-10T11:56:19.657Z,31.26
2023-04-10T11:58:51.440Z,30.81
2023-04-10T12:01:22.354Z,30.98
2023-04-10T12:03:51.779Z,29.52
2023-04-10T12:06:21.364Z,29.18
2023-04-10T12:08:51.328Z,29.74
2023-04-10T12:11:25.810Z,29.84
2023-04-10T12:13:56.577Z,29.95
2023-04-10T12:16:25.588Z,29.02
2023-04-10T12:18:55.287Z,29.01
2023-04-10T12:21:24.437Z,29.27
2023-04-10T12:23:53.321Z,29.16
2023-04-10T12:26:21.983Z,28.85
2023-04-10T12:28:55.828Z,29.13
2023-04-10T12:31:33.210Z,29.93
2023-04-10T12:34:03.516Z,29.34
2023-04-10T12:36:34.987Z,30.15
2023-04-10T12:39:05.857Z,30.46
2023-04-10T12:41:35.761Z,30.49
2023-04-10T12:44:09.245Z,30.88
2023-04-10T12:46:38.407Z,31.32
2023-04-10T12:49:17.203Z,31.42
2023-04-10T12:51:50.833Z,31.19
2023-04-10T12:54:33.451Z,30.89
2023-04-10T12:57:04.218Z,31.63
2023-04-10T12:59:33.115Z,31.74
2023-04-10T13:02:01.680Z,31.87
2023-04-10T13:04:31.819Z,32.83
2023-04-10T13:07:00.320Z,31.91
2023-04-10T13:09:28.656Z,31.77
2023-04-10T13:12:57.003Z,31.46
2023-04-10T13:16:25.371Z,31.55
2023-04-10T13:19:57.637Z,31.92
2023-04-10T13:23:05.666Z,32.34
2023-04-10T13:25:36.724Z,32.21
2023-04-10T13:28:10.231Z,32.41
2023-04-10T13:30:40.624Z,32.33
2023-04-10T13:33:09.998Z,33.02
2023-04-10T13:35:40.487Z,32.27
2023-04-10T13:38:11.922Z,33.21
2023-04-10T13:40:40.254Z,33.57
2023-04-10T13:43:08.630Z,33.26
2023-04-10T13:45:37.453Z,33.02
2023-04-10T13:48:07.612Z,33.40
2023-04-10T13:50:36.276Z,33.97
2023-04-10T13:53:04.974Z,33.36
2023-04-10T13:55:33.346Z,33.59
2023-04-10T13:58:01.618Z,33.08
2023-04-10T14:00:30.197Z,33.76
2023-04-10T14:03:38.654Z,33.54
2023-04-10T14:06:46.969Z,33.89
2023-04-10T14:10:20.638Z,34.01
2023-04-10T14:13:30.634Z,35.47
2023-04-10T14:16:09.257Z,35.05
2023-04-10T14:19:17.832Z,34.81
2023-04-10T14:22:26.004Z,35.44
2023-04-10T14:25:34.202Z,36.30
2023-04-10T14:28:42.825Z,36.83
2023-04-10T14:31:57.977Z,37.34
2023-04-10T14:35:06.690Z,37.77
2023-04-10T14:38:15.914Z,38.62
2023-04-10T14:41:24.311Z,39.61
2023-04-10T14:48:29.459Z,40.75
2023-04-10T14:51:26.498Z,41.05
2023-04-10T14:53:55.184Z,42.14
2023-04-10T14:56:24.074Z,42.05
2023-04-10T14:58:52.415Z,42.33
2023-04-10T15:01:20.893Z,42.33
2023-04-10T15:03:49.522Z,42.71
2023-04-10T15:06:18.027Z,43.34
2023-04-10T15:08:46.523Z,43.70
2023-04-10T15:11:14.906Z,43.71
2023-04-10T15:13:43.237Z,43.76
2023-04-10T15:16:12.136Z,44.01
2023-04-10T15:18:40.704Z,43.78
2023-04-10T15:21:09.009Z,43.89
2023-04-10T15:23:37.587Z,43.99
2023-04-10T15:26:11.435Z,44.53
2023-04-10T15:28:40.742Z,44.47
2023-04-10T15:31:09.904Z,44.80
2023-04-10T15:33:39.419Z,45.23
2023-04-10T15:36:08.680Z,45.55
2023-04-10T15:38:37.906Z,45.92
2023-04-10T15:41:11.308Z,46.90
2023-04-10T15:43:39.676Z,47.13
2023-04-10T15:46:08.001Z,47.19
2023-04-10T15:48:36.306Z,47.39
2023-04-10T15:51:06.112Z,47.54
2023-04-10T15:53:35.490Z,47.49
2023-04-10T15:56:07.864Z,48.03
2023-04-10T15:58:36.212Z,48.06
2023-04-10T16:01:04.854Z,48.53
2023-04-10T16:03:33.473Z,48.76
2023-04-10T16:06:02.267Z,48.86
2023-04-10T16:08:30.879Z,49.35
2023-04-10T16:11:39.410Z,50.06
2023-04-10T16:14:47.606Z,50.14
2023-04-10T16:17:56.119Z,50.84
2023-04-10T16:21:04.566Z,50.73
2023-04-10T16:28:49.201Z,51.17
2023-04-10T16:32:17.299Z,51.87
2023-04-10T16:34:46.672Z,52.00
2023-04-10T16:37:14.980Z,52.32
2023-04-10T16:39:43.433Z,52.63
2023-04-10T16:42:11.889Z,52.96
2023-04-10T16:44:40.143Z,53.21
2023-04-10T16:47:09.011Z,53.22
2023-04-10T16:49:37.797Z,53.54
2023-04-10T16:52:06.227Z,53.92
2023-04-10T16:54:34.932Z,54.08
2023-04-10T16:57:03.824Z,54.44
2023-04-10T16:59:32.801Z,54.89
2023-04-10T17:02:01.407Z,55.17
2023-04-10T17:04:29.908Z,55.17
2023-04-10T17:06:58.313Z,55.91
2023-04-10T17:09:26.676Z,56.39
2023-04-10T17:11:55.267Z,56.32
2023-04-10T17:14:24.735Z,56.48
2023-04-10T17:16:53.074Z,56.69
2023-04-10T17:19:21.649Z,57.03
2023-04-10T17:21:52.350Z,56.80
2023-04-10T17:24:20.796Z,57.37
2023-04-10T17:26:50.218Z,57.67
2023-04-10T17:29:18.577Z,58.43
2023-04-10T17:31:47.054Z,58.46
2023-04-10T17:34:15.610Z,59.18
2023-04-10T17:36:44.057Z,58.82
2023-04-10T17:39:12.449Z,59.11
2023-04-10T17:41:41.147Z,59.16
2023-04-10T17:44:10.708Z,60.61
2023-04-10T17:46:39.197Z,60.20
2023-04-10T17:49:07.871Z,60.86
2023-04-10T17:51:36.152Z,60.85
2023-04-10T17:54:04.613Z,60.65
2023-04-10T17:56:33.330Z,61.15
2023-04-10T17:59:02.561Z,62.03
2023-04-10T18:01:31.287Z,61.62
2023-04-10T18:04:02.891Z,61.89
2023-04-10T18:06:32.040Z,62.09
2023-04-10T18:09:00.513Z,62.27
2023-04-10T18:11:29.180Z,63.04
2023-04-10T18:13:57.701Z,62.96
2023-04-10T18:16:26.219Z,62.82
2023-04-10T18:18:54.995Z,63.09
2023-04-10T18:21:23.617Z,63.82
2023-04-10T18:23:52.008Z,64.30
2023-04-10T18:26:21.207Z,64.64
2023-04-10T18:28:49.812Z,64.98
2023-04-10T18:31:19.243Z,65.75
2023-04-10T18:33:56.174Z,65.76
2023-04-10T18:36:32.606Z,65.73
2023-04-10T18:39:01.218Z,65.63
2023-04-10T18:41:29.510Z,65.80
2023-04-10T18:44:04.981Z,66.31
2023-04-10T18:46:34.372Z,66.19
2023-04-10T18:49:03.675Z,66.11
2023-04-10T18:51:34.972Z,67.04
2023-04-10T18:54:07.291Z,66.69
2023-04-10T18:56:35.978Z,66.50
2023-04-10T18:59:05.164Z,66.67
2023-04-10T19:01:35.406Z,67.28
2023-04-10T19:04:03.925Z,67.07
2023-04-10T19:06:33.161Z,67.35
2023-04-10T19:09:01.667Z,67.36
2023-04-10T19:11:32.781Z,67.60
2023-04-10T19:14:01.301Z,68.55
2023-04-10T19:16:30.257Z,68.07
2023-04-10T19:18:59.701Z,67.81
2023-04-10T19:21:28.687Z,67.74
2023-04-10T19:23:57.072Z,67.83
2023-04-10T19:26:26.254Z,67.74
2023-04-10T19:28:55.111Z,67.79
2023-04-10T19:31:27.728Z,67.54
2023-04-10T19:33:56.325Z,68.04
2023-04-10T19:36:24.950Z,68.05
2023-04-10T19:38:53.636Z,67.91
2023-04-10T19:41:22.317Z,67.77
2023-04-10T19:43:52.847Z,67.44
2023-04-10T19:46:22.386Z,67.56
2023-04-10T19:48:52.135Z,67.99
2023-04-10T19:51:21.169Z,67.73
2023-04-10T19:53:49.843Z,67.72
2023-04-10T19:56:18.389Z,68.10
2023-04-10T19:58:47.137Z,67.97
2023-04-10T20:01:15.625Z,68.57
2023-04-10T20:03:44.314Z,68.61
2023-04-10T20:06:12.887Z,68.27
2023-04-10T20:08:41.410Z,68.84
2023-04-10T20:11:09.866Z,69.25
2023-04-10T20:13:39.406Z,69.14
2023-04-10T20:16:09.016Z,69.49
2023-04-10T20:18:38.546Z,69.73
2023-04-10T20:21:08.052Z,69.84
2023-04-10T20:23:37.828Z,70.38
2023-04-10T20:26:06.783Z,70.39
2023-04-10T20:28:35.095Z,70.22
2023-04-10T20:31:03.562Z,70.39
2023-04-10T20:33:31.946Z,70.65
2023-04-10T20:36:00.478Z,70.81
2023-04-10T20:38:29.075Z,70.74
2023-04-10T20:40:57.600Z,70.72
2023-04-10T20:43:26.316Z,70.88
2023-04-10T20:45:55.191Z,70.85
2023-04-10T20:48:23.616Z,71.06
2023-04-10T20:50:52.028Z,71.23
2023-04-10T20:53:20.626Z,71.14
2023-04-10T20:55:54.118Z,71.33
2023-04-10T20:58:23.133Z,71.30
2023-04-10T21:00:53.141Z,71.53
2023-04-10T21:03:21.763Z,71.98
2023-04-10T21:05:52.159Z,72.05
2023-04-10T21:08:22.245Z,72.14
2023-04-10T21:10:51.543Z,72.11
2023-04-10T21:13:19.947Z,72.10
2023-04-10T21:15:49.462Z,72.42
2023-04-10T21:18:18.241Z,72.59
2023-04-10T21:20:46.644Z,72.87
2023-04-10T21:23:15.095Z,72.99
2023-04-10T21:25:51.512Z,73.41
2023-04-10T21:28:19.960Z,73.52
2023-04-10T21:30:48.322Z,73.64
2023-04-10T21:33:16.706Z,73.54
2023-04-10T21:35:45.472Z,73.17
2023-04-10T21:38:14.599Z,73.37
2023-04-10T21:40:50.077Z,75.23
2023-04-10T21:43:19.153Z,74.78
2023-04-10T21:45:47.614Z,75.84
2023-04-10T21:48:16.310Z,75.81
2023-04-10T21:50:44.721Z,75.17
2023-04-10T21:53:13.496Z,76.03
2023-04-10T21:55:41.965Z,75.66
2023-04-10T21:58:10.289Z,75.33
2023-04-10T22:00:38.899Z,75.25
2023-04-10T22:03:08.693Z,75.07
2023-04-10T22:05:37.190Z,75.45
2023-04-10T22:08:05.789Z,75.31
2023-04-10T22:10:35.524Z,75.92
2023-04-10T22:13:04.271Z,76.58
2023-04-10T22:15:32.591Z,75.68
2023-04-10T22:18:01.039Z,75.03
2023-04-10T22:20:29.426Z,75.42
2023-04-10T22:22:57.918Z,75.97
2023-04-10T22:25:26.281Z,76.37
2023-04-10T22:27:54.860Z,75.89
2023-04-10T22:30:23.221Z,76.00
2023-04-10T22:32:56.014Z,76.17
2023-04-10T22:35:24.655Z,77.07
2023-04-10T22:37:52.952Z,76.92
2023-04-10T22:40:21.332Z,77.04
2023-04-10T22:42:50.026Z,77.29
2023-04-10T22:45:18.445Z,77.50
2023-04-10T22:47:46.895Z,77.32
2023-04-10T22:50:15.155Z,77.49
2023-04-10T22:52:43.488Z,77.89
2023-04-10T22:55:12.160Z,77.83
2023-04-10T22:57:40.750Z,78.06
2023-04-10T23:00:09.591Z,78.60
2023-04-10T23:02:38.145Z,78.58
2023-04-10T23:05:06.952Z,78.10
2023-04-10T23:07:35.460Z,77.95
2023-04-10T23:10:04.176Z,77.87
2023-04-10T23:12:32.624Z,77.77
2023-04-10T23:15:01.410Z,77.67
2023-04-10T23:17:30.023Z,77.80
2023-04-10T23:19:58.554Z,78.13
2023-04-10T23:22:28.765Z,78.49
2023-04-10T23:24:57.647Z,78.61
2023-04-10T23:27:26.246Z,78.38
2023-04-10T23:29:54.557Z,78.35
2023-04-10T23:32:22.992Z,77.95
2023-04-10T23:34:51.556Z,77.54
2023-04-10T23:37:20.073Z,77.79
2023-04-10T23:39:48.896Z,77.00
2023-04-10T23:42:17.346Z,76.77
2023-04-10T23:44:45.804Z,77.21
2023-04-10T23:47:14.391Z,77.41
2023-04-10T23:49:42.816Z,77.61
2023-04-10T23:52:11.192Z,77.71
2023-04-10T23:54:40.116Z,77.63
2023-04-10T23:57:08.468Z,77.81
2023-04-10T23:59:36.765Z,77.76
